FGAPW LFHO-LFMT
Flight info
| Callsign | FGAPW |
|---|---|
| Flight time | 0h 39m |
| Altitude | 18000 |
| Route | PEQEF/N0445F170 DCT NG |
| Aircraft | C750/M-SBDE3FGHRWXY/S |
Departure
| Time | 2026-05-07 19:45 |
|---|---|
| Airport | Aubenas-South Ardèche Airport (LFHO) |
Arrival
| Time | 2026-05-07 20:24 |
|---|---|
| Airport | Montpellier-Méditerranée Airport (LFMT) |
| Time | Latitude | Longitude | Altitude | Speed | Heading |
|---|---|---|---|---|---|
| 2026-05-07 19:39 | 44.53954 | 4.36851 | 889 ft | 0 kts | 80° |
| 2026-05-07 19:41 | 44.53956 | 4.36883 | 893 ft | 7 kts | 86° |
| 2026-05-07 19:41 | 44.53950 | 4.36963 | 893 ft | 10 kts | 96° |
| 2026-05-07 19:41 | 44.53945 | 4.37090 | 892 ft | 16 kts | 95° |
| 2026-05-07 19:42 | 44.53984 | 4.37176 | 891 ft | 19 kts | 13° |
| 2026-05-07 19:42 | 44.54135 | 4.37189 | 883 ft | 26 kts | 4° |
| 2026-05-07 19:42 | 44.54334 | 4.37210 | 881 ft | 30 kts | 4° |
| 2026-05-07 19:42 | 44.54529 | 4.37229 | 880 ft | 26 kts | 4° |
| 2026-05-07 19:43 | 44.54705 | 4.37246 | 881 ft | 24 kts | 4° |
| 2026-05-07 19:43 | 44.54866 | 4.37263 | 888 ft | 22 kts | 4° |
| 2026-05-07 19:43 | 44.54999 | 4.37277 | 891 ft | 13 kts | 9° |
| 2026-05-07 19:43 | 44.55052 | 4.37301 | 891 ft | 5 kts | 318° |
| 2026-05-07 19:44 | 44.55043 | 4.37280 | 891 ft | 0 kts | 184° |
| 2026-05-07 19:44 | 44.55004 | 4.37276 | 891 ft | 26 kts | 185° |
| 2026-05-07 19:45 | 44.54494 | 4.37226 | 880 ft | 117 kts | 184° |
| 2026-05-07 19:45 | 44.53530 | 4.37125 | 988 ft | 150 kts | 184° |
| 2026-05-07 19:45 | 44.52449 | 4.36973 | 1461 ft | 155 kts | 186° |
| 2026-05-07 19:45 | 44.51437 | 4.36599 | 2039 ft | 159 kts | 211° |
| 2026-05-07 19:46 | 44.50674 | 4.35410 | 2399 ft | 173 kts | 233° |
| 2026-05-07 19:46 | 44.49845 | 4.34178 | 2970 ft | 173 kts | 218° |
| 2026-05-07 19:46 | 44.48758 | 4.33350 | 3305 ft | 189 kts | 204° |
| 2026-05-07 19:46 | 44.47447 | 4.32485 | 3215 ft | 225 kts | 205° |
| 2026-05-07 19:47 | 44.46043 | 4.31576 | 3765 ft | 227 kts | 204° |
| 2026-05-07 19:47 | 44.44572 | 4.30659 | 4400 ft | 235 kts | 203° |
| 2026-05-07 19:47 | 44.43056 | 4.29720 | 5040 ft | 241 kts | 203° |
| 2026-05-07 19:47 | 44.41506 | 4.28752 | 5674 ft | 246 kts | 204° |
| 2026-05-07 19:48 | 44.39926 | 4.27762 | 6329 ft | 251 kts | 203° |
| 2026-05-07 19:48 | 44.38290 | 4.26852 | 6911 ft | 255 kts | 194° |
| 2026-05-07 19:48 | 44.36507 | 4.26942 | 7432 ft | 260 kts | 169° |
| 2026-05-07 19:48 | 44.34742 | 4.27467 | 8077 ft | 264 kts | 167° |
| 2026-05-07 19:49 | 44.32925 | 4.27986 | 8741 ft | 268 kts | 169° |
| 2026-05-07 19:49 | 44.31079 | 4.28464 | 9410 ft | 271 kts | 169° |
| 2026-05-07 19:49 | 44.29209 | 4.28958 | 10055 ft | 274 kts | 169° |
| 2026-05-07 19:49 | 44.27331 | 4.29472 | 10664 ft | 275 kts | 169° |
| 2026-05-07 19:50 | 44.25464 | 4.29979 | 11277 ft | 277 kts | 170° |
| 2026-05-07 19:50 | 44.23562 | 4.30490 | 11863 ft | 281 kts | 171° |
| 2026-05-07 19:50 | 44.21566 | 4.31024 | 11914 ft | 303 kts | 170° |
| 2026-05-07 19:50 | 44.19417 | 4.31602 | 11915 ft | 325 kts | 170° |
| 2026-05-07 19:51 | 44.17125 | 4.32220 | 11914 ft | 343 kts | 170° |
| 2026-05-07 19:51 | 44.14728 | 4.32864 | 11912 ft | 358 kts | 170° |
| 2026-05-07 19:51 | 44.12273 | 4.33522 | 11910 ft | 370 kts | 170° |
| 2026-05-07 19:51 | 44.09700 | 4.34213 | 11914 ft | 381 kts | 170° |
| 2026-05-07 19:52 | 44.07059 | 4.34922 | 11918 ft | 389 kts | 170° |
| 2026-05-07 19:52 | 44.04368 | 4.35641 | 11915 ft | 396 kts | 170° |
| 2026-05-07 19:52 | 44.01673 | 4.36358 | 11919 ft | 400 kts | 170° |
| 2026-05-07 19:52 | 43.98930 | 4.37090 | 11926 ft | 402 kts | 170° |
| 2026-05-07 19:53 | 43.96183 | 4.37823 | 11931 ft | 403 kts | 170° |
| 2026-05-07 19:53 | 43.93415 | 4.38562 | 11929 ft | 404 kts | 171° |
| 2026-05-07 19:53 | 43.90678 | 4.39139 | 11905 ft | 387 kts | 178° |
| 2026-05-07 19:53 | 43.88102 | 4.38915 | 11916 ft | 364 kts | 190° |
| 2026-05-07 19:54 | 43.85728 | 4.37992 | 11922 ft | 346 kts | 202° |
| 2026-05-07 19:54 | 43.83638 | 4.36495 | 11926 ft | 331 kts | 213° |
| 2026-05-07 19:54 | 43.81860 | 4.34545 | 11830 ft | 323 kts | 223° |
| 2026-05-07 19:54 | 43.80335 | 4.32224 | 11490 ft | 326 kts | 229° |
| 2026-05-07 19:55 | 43.78819 | 4.29861 | 11158 ft | 330 kts | 228° |
| 2026-05-07 19:55 | 43.77263 | 4.27479 | 10701 ft | 336 kts | 228° |
| 2026-05-07 19:55 | 43.75765 | 4.25165 | 10198 ft | 318 kts | 229° |
| 2026-05-07 19:55 | 43.74332 | 4.22932 | 9671 ft | 303 kts | 229° |
| 2026-05-07 19:56 | 43.72958 | 4.20797 | 9101 ft | 291 kts | 229° |
| 2026-05-07 19:56 | 43.71628 | 4.18740 | 8539 ft | 283 kts | 230° |
| 2026-05-07 19:56 | 43.70328 | 4.16732 | 7993 ft | 277 kts | 230° |
| 2026-05-07 19:56 | 43.69068 | 4.14782 | 7442 ft | 272 kts | 229° |
| 2026-05-07 19:57 | 43.67813 | 4.12843 | 6926 ft | 269 kts | 229° |
| 2026-05-07 19:57 | 43.66568 | 4.10921 | 6413 ft | 267 kts | 229° |
| 2026-05-07 19:57 | 43.65331 | 4.09011 | 5875 ft | 266 kts | 229° |
| 2026-05-07 19:57 | 43.64100 | 4.07114 | 5343 ft | 264 kts | 229° |
| 2026-05-07 19:58 | 43.62875 | 4.05226 | 4817 ft | 262 kts | 229° |
| 2026-05-07 19:58 | 43.61666 | 4.03363 | 4285 ft | 259 kts | 229° |
| 2026-05-07 19:58 | 43.60466 | 4.01516 | 3755 ft | 258 kts | 229° |
| 2026-05-07 19:58 | 43.59216 | 3.99805 | 3201 ft | 255 kts | 216° |
| 2026-05-07 19:59 | 43.57553 | 3.99018 | 2474 ft | 257 kts | 182° |
| 2026-05-07 19:59 | 43.55882 | 3.99458 | 2411 ft | 232 kts | 154° |
| 2026-05-07 19:59 | 43.54600 | 4.00594 | 2435 ft | 208 kts | 142° |
| 2026-05-07 19:59 | 43.53461 | 4.01688 | 2426 ft | 192 kts | 143° |
| 2026-05-07 20:00 | 43.52404 | 4.02693 | 2422 ft | 177 kts | 142° |
| 2026-05-07 20:00 | 43.51432 | 4.03627 | 2419 ft | 168 kts | 142° |
| 2026-05-07 20:00 | 43.50500 | 4.04523 | 2423 ft | 159 kts | 142° |
| 2026-05-07 20:00 | 43.49614 | 4.05373 | 2424 ft | 151 kts | 142° |
| 2026-05-07 20:01 | 43.48770 | 4.06178 | 2420 ft | 143 kts | 142° |
| 2026-05-07 20:01 | 43.47981 | 4.06936 | 2420 ft | 133 kts | 142° |
| 2026-05-07 20:01 | 43.47229 | 4.07661 | 2415 ft | 129 kts | 143° |
| 2026-05-07 20:01 | 43.46529 | 4.08330 | 2414 ft | 119 kts | 143° |
| 2026-05-07 20:02 | 43.45841 | 4.08992 | 2434 ft | 126 kts | 142° |
| 2026-05-07 20:02 | 43.45086 | 4.09716 | 2445 ft | 136 kts | 142° |
| 2026-05-07 20:02 | 43.44292 | 4.10478 | 2447 ft | 141 kts | 142° |
| 2026-05-07 20:02 | 43.43487 | 4.11248 | 2448 ft | 140 kts | 142° |
| 2026-05-07 20:03 | 43.42691 | 4.12009 | 2443 ft | 140 kts | 142° |
| 2026-05-07 20:03 | 43.41906 | 4.12761 | 2426 ft | 135 kts | 142° |
| 2026-05-07 20:03 | 43.41155 | 4.13509 | 2414 ft | 130 kts | 135° |
| 2026-05-07 20:03 | 43.40630 | 4.14479 | 2421 ft | 124 kts | 114° |
| 2026-05-07 20:04 | 43.40378 | 4.15604 | 2421 ft | 122 kts | 95° |
| 2026-05-07 20:04 | 43.40409 | 4.16757 | 2424 ft | 121 kts | 78° |
| 2026-05-07 20:04 | 43.40718 | 4.17849 | 2434 ft | 132 kts | 59° |
| 2026-05-07 20:04 | 43.41354 | 4.18838 | 2436 ft | 145 kts | 38° |
| 2026-05-07 20:05 | 43.42267 | 4.19435 | 2450 ft | 146 kts | 17° |
| 2026-05-07 20:05 | 43.43283 | 4.19581 | 2482 ft | 147 kts | 5° |
| 2026-05-07 20:05 | 43.44301 | 4.19697 | 2516 ft | 146 kts | 7° |
| 2026-05-07 20:05 | 43.45318 | 4.19772 | 2529 ft | 147 kts | 358° |
| 2026-05-07 20:06 | 43.46297 | 4.19331 | 2501 ft | 152 kts | 331° |
| 2026-05-07 20:06 | 43.47022 | 4.18258 | 2447 ft | 157 kts | 308° |
| 2026-05-07 20:06 | 43.47675 | 4.17039 | 2443 ft | 158 kts | 308° |
| 2026-05-07 20:06 | 43.48307 | 4.15830 | 2439 ft | 157 kts | 308° |
| 2026-05-07 20:07 | 43.48932 | 4.14601 | 2438 ft | 157 kts | 307° |
| 2026-05-07 20:07 | 43.49561 | 4.13365 | 2439 ft | 157 kts | 307° |
| 2026-05-07 20:07 | 43.50183 | 4.12143 | 2422 ft | 152 kts | 307° |
| 2026-05-07 20:07 | 43.50798 | 4.10934 | 2227 ft | 155 kts | 307° |
| 2026-05-07 20:08 | 43.51411 | 4.09732 | 2030 ft | 152 kts | 306° |
| 2026-05-07 20:08 | 43.52010 | 4.08563 | 1832 ft | 147 kts | 306° |
| 2026-05-07 20:08 | 43.52594 | 4.07418 | 1633 ft | 145 kts | 305° |
| 2026-05-07 20:08 | 43.53170 | 4.06286 | 1439 ft | 143 kts | 304° |
| 2026-05-07 20:09 | 43.53736 | 4.05173 | 1256 ft | 140 kts | 304° |
| 2026-05-07 20:09 | 43.54288 | 4.04088 | 1066 ft | 137 kts | 304° |
| 2026-05-07 20:09 | 43.54831 | 4.03039 | 895 ft | 135 kts | 304° |
| 2026-05-07 20:10 | 43.55915 | 4.00937 | 503 ft | 129 kts | 301° |
| 2026-05-07 20:10 | 43.56402 | 3.99955 | 380 ft | 121 kts | 301° |
| 2026-05-07 20:10 | 43.56878 | 3.99026 | 222 ft | 118 kts | 302° |
| 2026-05-07 20:10 | 43.57340 | 3.98098 | 40 ft | 115 kts | 302° |
| 2026-05-07 20:11 | 43.57767 | 3.97291 | 23 ft | 92 kts | 300° |
| 2026-05-07 20:11 | 43.58203 | 3.96474 | 156 ft | 122 kts | 301° |
| 2026-05-07 20:11 | 43.58732 | 3.95387 | 399 ft | 149 kts | 302° |
| 2026-05-07 20:11 | 43.59341 | 3.94153 | 960 ft | 161 kts | 301° |
| 2026-05-07 20:12 | 43.59980 | 3.92853 | 1513 ft | 166 kts | 303° |
| 2026-05-07 20:12 | 43.60554 | 3.91461 | 2060 ft | 172 kts | 285° |
| 2026-05-07 20:12 | 43.60591 | 3.89688 | 2296 ft | 193 kts | 266° |
| 2026-05-07 20:12 | 43.60504 | 3.87732 | 2655 ft | 219 kts | 267° |
| 2026-05-07 20:13 | 43.60420 | 3.85453 | 2661 ft | 258 kts | 267° |
| 2026-05-07 20:13 | 43.59774 | 3.83145 | 3251 ft | 263 kts | 229° |
| 2026-05-07 20:13 | 43.58159 | 3.81910 | 3452 ft | 273 kts | 186° |
| 2026-05-07 20:13 | 43.56462 | 3.82563 | 3521 ft | 249 kts | 141° |
| 2026-05-07 20:14 | 43.55557 | 3.84414 | 3616 ft | 226 kts | 114° |
| 2026-05-07 20:14 | 43.54862 | 3.86335 | 3547 ft | 225 kts | 116° |
| 2026-05-07 20:14 | 43.54133 | 3.88241 | 3533 ft | 218 kts | 116° |
| 2026-05-07 20:14 | 43.53495 | 3.89984 | 3935 ft | 191 kts | 114° |
| 2026-05-07 20:15 | 43.52981 | 3.91618 | 4005 ft | 185 kts | 110° |
| 2026-05-07 20:15 | 43.52519 | 3.93340 | 3767 ft | 199 kts | 107° |
| 2026-05-07 20:15 | 43.52090 | 3.95215 | 3496 ft | 210 kts | 103° |
| 2026-05-07 20:15 | 43.51859 | 3.97210 | 3441 ft | 208 kts | 94° |
| 2026-05-07 20:16 | 43.51742 | 3.99178 | 3341 ft | 208 kts | 94° |
| 2026-05-07 20:16 | 43.51598 | 4.01188 | 3086 ft | 218 kts | 95° |
| 2026-05-07 20:16 | 43.51437 | 4.03289 | 2802 ft | 219 kts | 95° |
| 2026-05-07 20:16 | 43.51279 | 4.05374 | 2528 ft | 219 kts | 95° |
| 2026-05-07 20:17 | 43.51134 | 4.07407 | 2466 ft | 206 kts | 95° |
| 2026-05-07 20:17 | 43.51013 | 4.09285 | 2445 ft | 188 kts | 95° |
| 2026-05-07 20:17 | 43.50916 | 4.11012 | 2442 ft | 174 kts | 94° |
| 2026-05-07 20:17 | 43.50839 | 4.12663 | 2450 ft | 171 kts | 93° |
| 2026-05-07 20:18 | 43.50780 | 4.14291 | 2430 ft | 170 kts | 92° |
| 2026-05-07 20:18 | 43.50738 | 4.15921 | 2388 ft | 170 kts | 91° |
| 2026-05-07 20:18 | 43.50714 | 4.17554 | 2339 ft | 170 kts | 91° |
| 2026-05-07 20:18 | 43.50527 | 4.19124 | 2210 ft | 172 kts | 114° |
| 2026-05-07 20:19 | 43.49767 | 4.20355 | 2058 ft | 172 kts | 152° |
| 2026-05-07 20:19 | 43.48596 | 4.20361 | 1833 ft | 176 kts | 206° |
| 2026-05-07 20:19 | 43.47948 | 4.19110 | 1623 ft | 159 kts | 262° |
| 2026-05-07 20:19 | 43.48223 | 4.17712 | 1442 ft | 148 kts | 291° |
| 2026-05-07 20:20 | 43.48531 | 4.16397 | 1343 ft | 145 kts | 284° |
| 2026-05-07 20:20 | 43.48808 | 4.15065 | 1228 ft | 144 kts | 290° |
| 2026-05-07 20:20 | 43.49346 | 4.13883 | 1101 ft | 145 kts | 302° |
| 2026-05-07 20:20 | 43.49903 | 4.12734 | 989 ft | 147 kts | 302° |
| 2026-05-07 20:21 | 43.50540 | 4.11546 | 1092 ft | 162 kts | 306° |
| 2026-05-07 20:21 | 43.51226 | 4.10239 | 1253 ft | 178 kts | 304° |
| 2026-05-07 20:21 | 43.51916 | 4.08912 | 1395 ft | 160 kts | 304° |
| 2026-05-07 20:21 | 43.52542 | 4.07668 | 1459 ft | 156 kts | 303° |
| 2026-05-07 20:22 | 43.53143 | 4.06467 | 1480 ft | 145 kts | 303° |
| 2026-05-07 20:22 | 43.53703 | 4.05355 | 1385 ft | 139 kts | 303° |
| 2026-05-07 20:22 | 43.54250 | 4.04268 | 1159 ft | 139 kts | 303° |
| 2026-05-07 20:22 | 43.54799 | 4.03198 | 946 ft | 134 kts | 302° |
| 2026-05-07 20:23 | 43.55314 | 4.02184 | 755 ft | 123 kts | 300° |
| 2026-05-07 20:23 | 43.55777 | 4.01240 | 571 ft | 117 kts | 300° |
| 2026-05-07 20:23 | 43.56227 | 4.00318 | 399 ft | 115 kts | 301° |
| 2026-05-07 20:23 | 43.56678 | 3.99411 | 244 ft | 114 kts | 302° |
| 2026-05-07 20:24 | 43.57131 | 3.98516 | 112 ft | 115 kts | 302° |
| 2026-05-07 20:24 | 43.57566 | 3.97656 | 21 ft | 99 kts | 300° |
| 2026-05-07 20:24 | 43.57890 | 3.97006 | 11 ft | 59 kts | 304° |
| 2026-05-07 20:24 | 43.58067 | 3.96652 | 14 ft | 40 kts | 304° |
| 2026-05-07 20:25 | 43.58211 | 3.96366 | 15 ft | 33 kts | 304° |
| 2026-05-07 20:25 | 43.58318 | 3.96148 | 10 ft | 15 kts | 293° |
| 2026-05-07 20:25 | 43.58287 | 3.96029 | 8 ft | 14 kts | 243° |
| 2026-05-07 20:25 | 43.58226 | 3.95973 | 10 ft | 10 kts | 170° |
| 2026-05-07 20:26 | 43.58179 | 3.96029 | 10 ft | 9 kts | 124° |
| 2026-05-07 20:26 | 43.58147 | 3.96092 | 11 ft | 7 kts | 125° |
| 2026-05-07 20:26 | 43.58116 | 3.96152 | 12 ft | 10 kts | 125° |
| 2026-05-07 20:26 | 43.58068 | 3.96247 | 12 ft | 14 kts | 133° |
| 2026-05-07 20:27 | 43.57986 | 3.96212 | 12 ft | 15 kts | 213° |
| 2026-05-07 20:27 | 43.57890 | 3.96184 | 12 ft | 10 kts | 144° |
| 2026-05-07 20:27 | 43.57840 | 3.96280 | 12 ft | 15 kts | 124° |
| 2026-05-07 20:27 | 43.57782 | 3.96368 | 12 ft | 8 kts | 186° |
| 2026-05-07 20:28 | 43.57744 | 3.96332 | 12 ft | 1 kts | 254° |
| 2026-05-07 20:28 | 43.57752 | 3.96313 | 12 ft | 0 kts | 305° |